createdAt,value
2019-04-18T00:00:41.201Z,924.31
2019-04-18T00:02:13.078Z,924.26
2019-04-18T00:03:51.788Z,924.27
2019-04-18T00:05:16.645Z,924.31
2019-04-18T00:06:48.459Z,924.32
2019-04-18T00:08:20.273Z,924.31
2019-04-18T00:09:56.061Z,924.31
2019-04-18T00:11:23.903Z,924.26
2019-04-18T00:12:57.371Z,924.26
2019-04-18T00:14:41.690Z,924.29
2019-04-18T00:15:59.600Z,924.28
2019-04-18T00:17:31.867Z,924.30
2019-04-18T00:19:02.986Z,924.34
2019-04-18T00:20:34.789Z,924.40
2019-04-18T00:22:06.604Z,924.35
2019-04-18T00:23:38.420Z,924.32
2019-04-18T00:25:10.232Z,924.32
2019-04-18T00:26:44.101Z,924.34
2019-04-18T00:28:13.861Z,924.36
2019-04-18T00:29:45.675Z,924.32
2019-04-18T00:31:17.493Z,924.33
2019-04-18T00:32:49.304Z,924.30
2019-04-18T00:34:21.219Z,924.32
2019-04-18T00:35:52.936Z,924.37
2019-04-18T00:37:24.988Z,924.37
2019-04-18T00:38:56.669Z,924.42
2019-04-18T00:40:28.374Z,924.42
2019-04-18T00:42:00.369Z,924.40
2019-04-18T00:43:32.003Z,924.35
2019-04-18T00:45:05.263Z,924.36
2019-04-18T00:46:35.731Z,924.33
2019-04-18T00:48:07.445Z,924.36
2019-04-18T00:49:39.259Z,924.28
2019-04-18T00:51:11.075Z,924.28
2019-04-18T00:52:46.078Z,924.25
2019-04-18T00:54:14.702Z,924.30
2019-04-18T00:55:46.516Z,924.28
2019-04-18T00:57:18.350Z,924.33
2019-04-18T00:58:51.380Z,924.36
2019-04-18T01:00:21.959Z,924.41
2019-04-18T01:01:53.774Z,924.39
2019-04-18T01:03:25.826Z,924.41
2019-04-18T01:04:57.400Z,924.43
2019-04-18T01:06:29.215Z,924.42
2019-04-18T01:08:01.044Z,924.44
2019-04-18T01:09:32.843Z,924.44
2019-04-18T01:11:04.757Z,924.45
2019-04-18T01:12:36.472Z,924.46
2019-04-18T01:14:08.286Z,924.46
2019-04-18T01:15:40.099Z,924.49
2019-04-18T01:17:12.876Z,924.49
2019-04-18T01:18:43.949Z,924.48
2019-04-18T01:20:15.541Z,924.50
2019-04-18T01:21:47.357Z,924.44
2019-04-18T01:23:22.012Z,924.41
2019-04-18T01:24:50.986Z,924.41
2019-04-18T01:26:22.798Z,924.41
2019-04-18T01:27:54.611Z,924.40
2019-04-18T01:29:26.525Z,924.41
2019-04-18T01:30:58.681Z,924.43
2019-04-18T01:32:30.065Z,924.41
2019-04-18T01:34:01.868Z,924.49
2019-04-18T01:35:33.680Z,924.47
2019-04-18T01:37:05.495Z,924.53
2019-04-18T01:38:38.986Z,924.56
2019-04-18T01:40:09.123Z,924.54
2019-04-18T01:41:41.039Z,924.51
2019-04-18T01:43:12.750Z,924.46
2019-04-18T01:44:46.713Z,924.48
2019-04-18T01:46:16.377Z,924.47
2019-04-18T01:47:48.392Z,924.49
2019-04-18T01:49:20.005Z,924.44
2019-04-18T01:50:51.826Z,924.41
2019-04-18T01:52:26.664Z,924.43
2019-04-18T01:53:55.446Z,924.44
2019-04-18T01:55:27.260Z,924.46
2019-04-18T01:56:59.782Z,924.48
2019-04-18T01:58:34.033Z,924.47
2019-04-18T02:00:02.704Z,924.48
2019-04-18T02:01:34.515Z,924.49
2019-04-18T02:03:06.329Z,924.43
2019-04-18T02:04:41.098Z,924.44
2019-04-18T02:06:10.770Z,924.44
2019-04-18T02:07:45.499Z,924.42
2019-04-18T02:09:13.583Z,924.36
2019-04-18T02:10:45.397Z,924.35
2019-04-18T02:12:17.314Z,924.36
2019-04-18T02:13:52.419Z,924.37
2019-04-18T02:15:20.838Z,924.40
2019-04-18T02:16:52.652Z,924.41
2019-04-18T02:18:24.465Z,924.37
2019-04-18T02:19:57.026Z,924.39
2019-04-18T02:21:28.093Z,924.39
2019-04-18T02:23:00.821Z,924.44
2019-04-18T02:24:31.819Z,924.40
2019-04-18T02:26:03.565Z,924.39
2019-04-18T02:27:35.349Z,924.39
2019-04-18T02:29:09.673Z,924.45
2019-04-18T02:30:38.974Z,924.46
2019-04-18T02:32:10.787Z,924.47
2019-04-18T02:33:45.767Z,924.44
2019-04-18T02:35:21.597Z,924.47
2019-04-18T02:36:46.227Z,924.46
2019-04-18T02:38:19.910Z,924.41
2019-04-18T02:39:49.854Z,924.43
2019-04-18T02:41:21.668Z,924.42
2019-04-18T02:42:53.682Z,924.41
2019-04-18T02:44:27.509Z,924.46
2019-04-18T02:45:57.109Z,924.40
2019-04-18T02:47:28.922Z,924.41
2019-04-18T02:49:00.762Z,924.39
2019-04-18T02:50:32.548Z,924.47
2019-04-18T02:52:04.361Z,924.48
2019-04-18T02:53:36.181Z,924.44
2019-04-18T02:55:07.992Z,924.44
2019-04-18T02:56:39.803Z,924.43
2019-04-18T02:58:11.616Z,924.38
2019-04-18T02:59:48.963Z,924.47
2019-04-18T03:01:15.382Z,924.41
2019-04-18T03:02:47.056Z,924.44
2019-04-18T03:04:19.974Z,924.47
2019-04-18T03:05:50.683Z,924.43
2019-04-18T03:07:23.400Z,924.39
2019-04-18T03:08:56.920Z,924.46
2019-04-18T03:10:26.123Z,924.43
2019-04-18T03:19:37.206Z,924.51
2019-04-18T03:21:09.156Z,924.53
2019-04-18T03:22:40.631Z,924.49
2019-04-18T03:24:16.750Z,924.52
2019-04-18T03:25:44.258Z,924.55
2019-04-18T03:27:16.073Z,924.51
2019-04-18T03:28:47.884Z,924.51
2019-04-18T03:30:28.930Z,924.49
2019-04-18T03:31:58.024Z,924.47
2019-04-18T03:33:23.895Z,924.45
2019-04-18T03:34:55.138Z,924.51
2019-04-18T03:36:28.870Z,924.47
2019-04-18T03:37:58.864Z,924.42
2019-04-18T03:39:30.578Z,924.36
2019-04-18T03:41:02.476Z,924.35
2019-04-18T03:42:34.203Z,924.35
2019-04-18T03:44:06.156Z,924.34
2019-04-18T03:45:37.831Z,924.37
2019-04-18T03:47:09.650Z,924.40
2019-04-18T03:48:41.458Z,924.36
2019-04-18T03:50:18.174Z,924.39
2019-04-18T03:51:45.085Z,924.38
2019-04-18T03:53:16.898Z,924.37
2019-04-18T03:54:48.718Z,924.35
2019-04-18T03:56:20.626Z,924.35
2019-04-18T03:57:52.338Z,924.32
2019-04-18T03:59:24.154Z,924.32
2019-04-18T04:00:58.073Z,924.26
2019-04-18T04:02:27.780Z,924.26
2019-04-18T04:03:59.591Z,924.19
2019-04-18T04:05:31.404Z,924.19
2019-04-18T04:07:04.152Z,924.15
2019-04-18T04:08:35.034Z,924.11
2019-04-18T04:19:21.318Z,924.04
2019-04-18T04:20:49.540Z,924.06
2019-04-18T04:22:21.349Z,924.03
2019-04-18T04:23:53.164Z,924.00
2019-04-18T04:25:24.975Z,924.02
2019-04-18T04:26:56.788Z,924.03
2019-04-18T04:28:29.050Z,924.02
2019-04-18T04:30:00.414Z,923.99
2019-04-18T04:31:32.235Z,923.94
2019-04-18T04:33:04.175Z,923.96
2019-04-18T04:34:35.855Z,923.96
2019-04-18T04:36:20.784Z,923.97
2019-04-18T04:37:44.630Z,923.99
2019-04-18T04:39:11.300Z,923.99
2019-04-18T04:40:43.108Z,923.96
2019-04-18T04:42:15.755Z,923.96
2019-04-18T04:43:46.837Z,923.90
2019-04-18T04:45:18.547Z,923.86
2019-04-18T04:46:50.359Z,923.87
2019-04-18T04:48:24.986Z,923.83
2019-04-18T04:49:53.985Z,923.86
2019-04-18T04:51:25.798Z,923.85
2019-04-18T04:52:59.665Z,923.86
2019-04-18T04:54:29.430Z,923.84
2019-04-18T04:56:01.338Z,923.84
2019-04-18T04:57:33.051Z,923.83
2019-04-18T04:59:05.425Z,923.81
2019-04-18T05:00:36.678Z,923.81
2019-04-18T05:02:09.085Z,923.79
2019-04-18T05:03:40.304Z,923.78
2019-04-18T05:05:12.115Z,923.79
2019-04-18T05:06:44.563Z,923.75
2019-04-18T05:08:15.938Z,923.72
2019-04-18T05:09:47.555Z,923.71
2019-04-18T05:11:21.598Z,923.72
2019-04-18T05:12:51.180Z,923.72
2019-04-18T05:14:23.193Z,923.71
2019-04-18T05:15:54.806Z,923.65
2019-04-18T05:17:26.618Z,923.71
2019-04-18T05:18:58.431Z,923.69
2019-04-18T05:20:30.244Z,923.70
2019-04-18T05:22:02.059Z,923.66
2019-04-18T05:23:33.871Z,923.65
2019-04-18T05:25:08.070Z,923.65
2019-04-18T05:26:37.498Z,923.68
2019-04-18T05:28:09.307Z,923.64
2019-04-18T05:29:41.125Z,923.63
2019-04-18T05:31:17.612Z,923.59
2019-04-18T05:32:44.847Z,923.61
2019-04-18T05:34:17.961Z,923.63
2019-04-18T05:35:48.371Z,923.63
2019-04-18T05:37:20.184Z,923.63
2019-04-18T05:38:54.054Z,923.56
2019-04-18T05:40:23.810Z,923.56
2019-04-18T05:41:56.986Z,923.54
2019-04-18T05:43:27.438Z,923.50
2019-04-18T05:44:59.393Z,923.46
2019-04-18T05:46:31.063Z,923.47
2019-04-18T05:48:02.874Z,923.43
2019-04-18T05:49:36.071Z,923.47
2019-04-18T05:51:06.700Z,923.50
2019-04-18T05:52:38.313Z,923.48
2019-04-18T05:54:10.125Z,923.45
2019-04-18T05:55:41.938Z,923.47
2019-04-18T05:57:13.751Z,923.45
2019-04-18T05:58:45.564Z,923.51
2019-04-18T06:00:17.378Z,923.48
2019-04-18T06:01:49.190Z,923.47
2019-04-18T06:03:22.984Z,923.44
2019-04-18T06:04:52.815Z,923.46
2019-04-18T06:06:24.628Z,923.46
2019-04-18T06:07:59.371Z,923.39
2019-04-18T06:09:28.353Z,923.41
2019-04-18T06:11:00.066Z,923.42
2019-04-18T06:12:32.761Z,923.42
2019-04-18T06:14:03.692Z,923.43
2019-04-18T06:15:35.604Z,923.43
2019-04-18T06:17:07.413Z,923.41
2019-04-18T06:18:42.484Z,923.39
2019-04-18T06:20:10.943Z,923.37
2019-04-18T06:21:42.755Z,923.33
2019-04-18T06:23:15.029Z,923.33
2019-04-18T06:24:46.383Z,923.33
2019-04-18T06:26:18.193Z,923.33
2019-04-18T06:27:50.106Z,923.33
2019-04-18T06:29:21.819Z,923.28
2019-04-18T06:30:53.631Z,923.32
2019-04-18T06:32:25.444Z,923.27
2019-04-18T06:33:57.257Z,923.29
2019-04-18T06:35:29.069Z,923.30
2019-04-18T06:37:00.882Z,923.31
2019-04-18T06:38:33.001Z,923.29
2019-04-18T06:40:04.507Z,923.28
2019-04-18T06:41:38.954Z,923.27
2019-04-18T06:43:08.133Z,923.29
2019-04-18T06:44:39.950Z,923.24
2019-04-18T06:46:17.727Z,923.25
2019-04-18T06:47:43.572Z,923.26
2019-04-18T06:49:15.387Z,923.22
2019-04-18T06:50:47.196Z,923.26
2019-04-18T06:52:19.009Z,923.22
2019-04-18T06:53:52.250Z,923.28
2019-04-18T06:55:22.637Z,923.20
2019-04-18T06:56:54.449Z,923.22
2019-04-18T06:58:35.515Z,923.27
2019-04-18T06:59:58.071Z,923.25
2019-04-18T07:01:31.760Z,923.23
2019-04-18T07:03:01.696Z,923.19
2019-04-18T07:04:33.613Z,923.18
2019-04-18T07:06:08.940Z,923.18
2019-04-18T07:07:38.539Z,923.19
2019-04-18T07:09:08.945Z,923.16
2019-04-18T07:10:55.256Z,923.17
2019-04-18T07:12:14.071Z,923.12
2019-04-18T07:13:44.383Z,923.17
2019-04-18T07:15:16.195Z,923.19
2019-04-18T07:16:48.109Z,923.22
2019-04-18T07:18:19.820Z,923.22
2019-04-18T07:19:51.633Z,923.20
2019-04-18T07:21:26.438Z,923.21
2019-04-18T07:22:55.458Z,923.16
2019-04-18T07:24:27.071Z,923.19
2019-04-18T07:25:58.883Z,923.21
2019-04-18T07:27:30.706Z,923.22
2019-04-18T07:29:02.508Z,923.27
2019-04-18T07:30:38.393Z,923.25
2019-04-18T07:32:06.134Z,923.25
2019-04-18T07:33:37.948Z,923.31
2019-04-18T07:35:09.766Z,923.30
2019-04-18T07:36:41.573Z,923.33
2019-04-18T07:38:13.383Z,923.32
2019-04-18T07:39:45.195Z,923.30
2019-04-18T07:41:19.084Z,923.26
2019-04-18T07:42:48.821Z,923.24
2019-04-18T07:44:21.003Z,923.32
2019-04-18T07:45:52.445Z,923.34
2019-04-18T07:47:24.358Z,923.36
2019-04-18T07:48:56.070Z,923.39
2019-04-18T07:50:27.882Z,923.35
2019-04-18T07:51:59.700Z,923.38
2019-04-18T07:53:31.607Z,923.38
2019-04-18T07:55:03.320Z,923.38
2019-04-18T07:56:38.192Z,923.35
2019-04-18T07:58:06.946Z,923.33
2019-04-18T07:59:38.857Z,923.38
2019-04-18T08:01:10.571Z,923.36
2019-04-18T08:02:42.382Z,923.36
2019-04-18T08:04:16.177Z,923.39
2019-04-18T08:05:46.007Z,923.41
2019-04-18T08:07:17.825Z,923.40
2019-04-18T08:08:49.632Z,923.38
2019-04-18T08:10:25.673Z,923.41
2019-04-18T08:11:53.258Z,923.40
2019-04-18T08:13:25.074Z,923.41
2019-04-18T08:14:56.881Z,923.38
2019-04-18T08:16:28.694Z,923.37
2019-04-18T08:18:00.720Z,923.43
2019-04-18T08:19:32.323Z,923.39
2019-04-18T08:21:04.133Z,923.42
2019-04-18T08:22:35.944Z,923.40
2019-04-18T08:24:09.530Z,923.39
2019-04-18T08:25:39.567Z,923.43
2019-04-18T08:27:11.382Z,923.49
2019-04-18T08:28:43.194Z,923.48
2019-04-18T08:30:15.287Z,923.49
2019-04-18T08:31:46.817Z,923.49
2019-04-18T08:33:18.631Z,923.49
2019-04-18T08:34:50.443Z,923.51
2019-04-18T08:36:22.355Z,923.54
2019-04-18T08:37:57.688Z,923.51
2019-04-18T08:39:25.879Z,923.50
2019-04-18T08:40:57.693Z,923.53
2019-04-18T08:42:30.743Z,923.49
2019-04-18T08:44:01.315Z,923.50
2019-04-18T08:45:33.127Z,923.47
2019-04-18T08:47:08.282Z,923.49
2019-04-18T08:48:36.852Z,923.48
2019-04-18T08:50:08.908Z,923.50
2019-04-18T08:51:40.377Z,923.50
2019-04-18T08:53:12.203Z,923.56
2019-04-18T08:54:44.204Z,923.56
2019-04-18T08:56:15.814Z,923.56
2019-04-18T08:57:47.626Z,923.55
2019-04-18T08:59:19.438Z,923.55
2019-04-18T09:00:51.352Z,923.59
2019-04-18T09:02:23.063Z,923.58
2019-04-18T09:03:54.877Z,923.58
2019-04-18T09:05:30.809Z,923.61
2019-04-18T09:06:59.132Z,923.68
2019-04-18T09:08:31.364Z,923.70
2019-04-18T09:10:06.719Z,923.74
2019-04-18T09:11:35.042Z,923.72
2019-04-18T09:13:07.779Z,923.73
2019-04-18T09:14:37.993Z,923.70
2019-04-18T09:16:10.363Z,923.70
2019-04-18T09:17:41.560Z,923.74
2019-04-18T09:19:15.925Z,923.80
2019-04-18T09:20:45.584Z,923.78
2019-04-18T09:22:17.855Z,923.82
2019-04-18T09:23:48.725Z,923.81
2019-04-18T09:25:20.936Z,923.83
2019-04-18T09:26:53.098Z,923.84
2019-04-18T09:28:23.878Z,923.88
2019-04-18T09:29:55.689Z,923.91
2019-04-18T09:31:27.598Z,923.94
2019-04-18T09:32:59.332Z,923.98
2019-04-18T09:36:02.940Z,924.03
2019-04-18T09:37:34.755Z,923.96
2019-04-18T09:39:10.739Z,924.04
2019-04-18T09:40:38.372Z,924.04
2019-04-18T09:42:10.715Z,924.06
2019-04-18T09:43:42.011Z,924.09
2019-04-18T09:45:27.850Z,924.08
2019-04-18T09:46:45.623Z,924.10
2019-04-18T09:48:17.540Z,924.12
2019-04-18T09:49:49.457Z,924.10
2019-04-18T09:51:25.736Z,924.12
2019-04-18T09:52:52.883Z,924.16
2019-04-18T09:54:25.006Z,924.18
2019-04-18T09:55:56.505Z,924.18
2019-04-18T09:57:28.320Z,924.16
2019-04-18T09:59:00.134Z,924.15
2019-04-18T10:00:31.971Z,924.16
2019-04-18T10:02:03.764Z,924.24
2019-04-18T10:03:36.586Z,924.26
2019-04-18T10:05:21.912Z,924.26
2019-04-18T10:06:39.211Z,924.32
2019-04-18T10:08:11.163Z,924.31
2019-04-18T10:09:43.117Z,924.30
2019-04-18T10:11:17.873Z,924.32
2019-04-18T10:12:46.475Z,924.31
2019-04-18T10:14:18.294Z,924.35
2019-04-18T10:15:58.319Z,924.41
2019-04-18T10:17:21.926Z,924.43
2019-04-18T10:18:53.743Z,924.42
2019-04-18T10:20:28.852Z,924.46
2019-04-18T10:21:57.383Z,924.42
2019-04-18T10:23:29.199Z,924.47
2019-04-18T10:25:01.011Z,924.46
2019-04-18T10:26:33.144Z,924.48
2019-04-18T10:28:05.790Z,924.52
2019-04-18T10:29:36.466Z,924.54
2019-04-18T10:31:08.682Z,924.56
2019-04-18T10:32:40.115Z,924.54
2019-04-18T10:34:15.973Z,924.62
2019-04-18T10:35:43.741Z,924.68
2019-04-18T10:37:15.617Z,924.70
2019-04-18T10:38:51.579Z,924.70
2019-04-18T10:40:19.204Z,924.74
2019-04-18T10:41:51.048Z,924.72
2019-04-18T10:44:55.447Z,924.77
2019-04-18T10:46:26.782Z,924.76
2019-04-18T10:47:58.387Z,924.79
2019-04-18T10:49:30.119Z,924.78
2019-04-18T10:51:02.042Z,924.77
2019-04-18T10:52:33.762Z,924.78
2019-04-18T10:54:05.583Z,924.79
2019-04-18T10:55:37.420Z,924.88
2019-04-18T10:57:09.229Z,924.86
2019-04-18T10:58:41.082Z,924.86
2019-04-18T11:03:16.682Z,924.93
2019-04-18T11:04:48.333Z,924.97
2019-04-18T11:06:23.020Z,924.95
2019-04-18T11:07:51.985Z,924.93
2019-04-18T11:09:23.805Z,924.98
2019-04-18T11:10:55.672Z,924.94
2019-04-18T11:12:27.846Z,924.94
2019-04-18T11:13:59.781Z,924.95
2019-04-18T11:15:31.359Z,924.90
2019-04-18T11:17:04.107Z,924.97
2019-04-18T11:18:34.771Z,925.01
2019-04-18T11:20:06.814Z,925.02
2019-04-18T11:21:38.810Z,925.07
2019-04-18T11:23:10.199Z,925.02
2019-04-18T11:24:42.022Z,925.07
2019-04-18T11:26:13.834Z,925.07
2019-04-18T11:27:49.218Z,925.09
2019-04-18T11:29:17.804Z,925.15
2019-04-18T11:30:58.957Z,925.22
2019-04-18T11:32:22.948Z,925.26
2019-04-18T11:33:52.945Z,925.25
2019-04-18T11:35:24.807Z,925.20
2019-04-18T11:38:28.460Z,925.25
2019-04-18T11:40:00.335Z,925.29
2019-04-18T11:41:32.104Z,925.27
2019-04-18T11:43:06.414Z,925.27
2019-04-18T11:44:35.719Z,925.25
2019-04-18T11:46:07.567Z,925.31
2019-04-18T11:47:39.356Z,925.31
2019-04-18T11:49:11.172Z,925.30
2019-04-18T11:50:43.008Z,925.35
2019-04-18T11:52:15.589Z,925.36
2019-04-18T11:53:46.717Z,925.40
2019-04-18T11:55:18.515Z,925.42
2019-04-18T11:56:50.413Z,925.46
2019-04-18T11:58:22.211Z,925.44
2019-04-18T11:59:53.940Z,925.48
2019-04-18T12:01:31.176Z,925.48
2019-04-18T12:02:58.127Z,925.51
2019-04-18T12:04:29.530Z,925.52
2019-04-18T12:06:01.279Z,925.49
2019-04-18T12:07:34.706Z,925.51
2019-04-18T12:09:04.877Z,925.50
2019-04-18T12:10:36.701Z,925.51
2019-04-18T12:12:08.518Z,925.48
2019-04-18T12:13:40.384Z,925.53
2019-04-18T12:15:12.191Z,925.50
2019-04-18T12:16:44.213Z,925.58
2019-04-18T12:18:15.836Z,925.57
2019-04-18T12:19:47.939Z,925.52
2019-04-18T12:21:19.574Z,925.55
2019-04-18T12:22:51.384Z,925.57
2019-04-18T12:24:23.106Z,925.48
2019-04-18T12:25:54.979Z,925.52
2019-04-18T12:27:26.755Z,925.51
2019-04-18T12:28:58.613Z,925.52
2019-04-18T12:30:30.402Z,925.55
2019-04-18T12:32:02.496Z,925.54
2019-04-18T12:33:35.310Z,925.52
2019-04-18T12:35:06.371Z,925.49
2019-04-18T12:36:37.701Z,925.56
2019-04-18T12:38:09.826Z,925.57
2019-04-18T12:39:41.610Z,925.63
2019-04-18T12:41:14.164Z,925.62
2019-04-18T12:42:45.139Z,925.58
2019-04-18T12:44:16.821Z,925.58
2019-04-18T12:45:48.672Z,925.62
2019-04-18T12:47:20.470Z,925.50
2019-04-18T12:48:52.294Z,925.64
2019-04-18T12:50:28.106Z,925.58
2019-04-18T12:52:08.642Z,925.63
2019-04-18T12:53:28.022Z,925.61
2019-04-18T12:55:00.003Z,925.59
2019-04-18T12:56:32.228Z,925.59
2019-04-18T12:58:03.478Z,925.60
2019-04-18T12:59:35.064Z,925.58
2019-04-18T13:01:07.467Z,925.58
2019-04-18T13:02:38.726Z,925.53
2019-04-18T13:04:10.603Z,925.56
2019-04-18T13:05:42.363Z,925.57
2019-04-18T13:07:14.867Z,925.59
2019-04-18T13:08:46.040Z,925.55
2019-04-18T13:10:17.856Z,925.60
2019-04-18T13:11:49.769Z,925.57
2019-04-18T13:13:21.492Z,925.53
2019-04-18T13:14:54.187Z,925.51
2019-04-18T13:16:25.140Z,925.53
2019-04-18T13:17:56.964Z,925.52
2019-04-18T13:19:28.881Z,925.56
2019-04-18T13:21:01.054Z,925.58
2019-04-18T13:22:32.445Z,925.62
2019-04-18T13:24:04.576Z,925.61
2019-04-18T13:25:36.176Z,925.63
2019-04-18T13:27:07.970Z,925.63
2019-04-18T13:28:39.772Z,925.57
2019-04-18T13:30:12.102Z,925.56
2019-04-18T13:31:43.397Z,925.55
2019-04-18T13:33:16.153Z,925.58
2019-04-18T13:34:47.415Z,925.53
2019-04-18T13:36:22.765Z,925.55
2019-04-18T13:37:52.497Z,925.55
2019-04-18T13:39:22.825Z,925.57
2019-04-18T13:40:54.668Z,925.57
2019-04-18T13:42:26.456Z,925.54
2019-04-18T13:43:58.800Z,925.52
2019-04-18T13:45:29.883Z,925.58
2019-04-18T13:47:01.881Z,925.57
2019-04-18T13:48:33.922Z,925.65
2019-04-18T13:50:05.346Z,925.65
2019-04-18T13:51:37.134Z,925.59
2019-04-18T13:53:09.376Z,925.66
2019-04-18T13:54:40.796Z,925.65
2019-04-18T13:56:12.619Z,925.65
2019-04-18T13:57:44.460Z,925.66
2019-04-18T13:59:16.271Z,925.57
2019-04-18T14:00:48.094Z,925.62
2019-04-18T14:02:22.351Z,925.66
2019-04-18T14:03:51.899Z,925.57
2019-04-18T14:05:23.584Z,925.61
2019-04-18T14:06:56.501Z,925.58
2019-04-18T14:08:27.248Z,925.57
2019-04-18T14:09:59.148Z,925.62
2019-04-18T14:11:30.896Z,925.56
2019-04-18T14:13:02.725Z,925.64
2019-04-18T14:14:34.558Z,925.62
2019-04-18T14:16:06.424Z,925.62
2019-04-18T14:17:38.310Z,925.61
2019-04-18T14:19:10.475Z,925.67
2019-04-18T14:20:41.834Z,925.64
2019-04-18T14:22:13.962Z,925.60
2019-04-18T14:23:45.645Z,925.57
2019-04-18T14:25:17.412Z,925.60
2019-04-18T14:26:49.757Z,925.56
2019-04-18T14:28:21.744Z,925.55
2019-04-18T14:29:52.830Z,925.53
2019-04-18T14:31:24.619Z,925.58
2019-04-18T14:32:56.790Z,925.55
2019-04-18T14:34:28.290Z,925.52
2019-04-18T14:36:00.855Z,925.53
2019-04-18T14:37:31.937Z,925.48
2019-04-18T14:39:03.861Z,925.35
2019-04-18T14:40:35.600Z,925.38
2019-04-18T14:42:07.856Z,925.38
2019-04-18T14:43:39.367Z,925.37
2019-04-18T14:45:11.460Z,925.35
2019-04-18T14:46:43.178Z,925.36
2019-04-18T14:48:17.383Z,925.28
2019-04-18T14:49:46.562Z,925.28
2019-04-18T14:51:18.421Z,925.25
2019-04-18T14:52:50.209Z,925.21
2019-04-18T14:54:22.018Z,925.27
2019-04-18T14:55:54.685Z,925.27
2019-04-18T14:57:25.671Z,925.25
2019-04-18T14:58:57.521Z,925.25
2019-04-18T15:00:42.476Z,925.18
2019-04-18T15:02:01.255Z,925.15
2019-04-18T15:03:33.470Z,925.23
2019-04-18T15:05:04.809Z,925.15
2019-04-18T15:06:36.630Z,925.12
2019-04-18T15:08:10.560Z,925.08
2019-04-18T15:09:40.321Z,925.11
2019-04-18T15:11:12.108Z,924.99
2019-04-18T15:12:44.047Z,925.09
2019-04-18T15:14:15.788Z,925.01
2019-04-18T15:15:47.597Z,925.03
2019-04-18T15:17:19.478Z,924.97
2019-04-18T15:18:51.259Z,924.91
2019-04-18T15:20:23.164Z,924.90
2019-04-18T15:21:54.893Z,924.92
2019-04-18T15:23:26.715Z,924.93
2019-04-18T15:24:58.544Z,924.86
2019-04-18T15:26:30.405Z,924.83
2019-04-18T15:28:02.216Z,924.75
2019-04-18T15:29:34.020Z,924.75
2019-04-18T15:31:10.920Z,924.76
2019-04-18T15:32:38.021Z,924.67
2019-04-18T15:34:09.576Z,924.69
2019-04-18T15:35:42.826Z,924.64
2019-04-18T15:37:13.167Z,924.70
2019-04-18T15:38:45.089Z,924.69
2019-04-18T15:40:16.851Z,924.58
2019-04-18T15:41:49.249Z,924.51
2019-04-18T15:43:20.468Z,924.50
2019-04-18T15:44:52.293Z,924.68
2019-04-18T15:46:24.101Z,924.50
2019-04-18T15:47:55.928Z,924.47
2019-04-18T15:49:27.880Z,924.38
2019-04-18T15:50:59.580Z,924.37
2019-04-18T15:52:31.589Z,924.34
2019-04-18T15:54:05.973Z,924.40
2019-04-18T15:55:35.267Z,924.38
2019-04-18T15:57:07.107Z,924.32
2019-04-18T15:58:38.983Z,924.31
2019-04-18T16:00:10.662Z,924.28
2019-04-18T16:01:42.388Z,924.20
2019-04-18T16:03:20.393Z,924.26
2019-04-18T16:04:47.226Z,924.27
2019-04-18T16:06:18.154Z,924.27
2019-04-18T16:07:49.666Z,924.15
2019-04-18T16:09:21.488Z,924.17
2019-04-18T16:10:53.959Z,924.10
2019-04-18T16:12:25.175Z,924.13
2019-04-18T16:13:57.147Z,924.19
2019-04-18T16:15:28.893Z,924.10
2019-04-18T16:17:00.622Z,924.04
2019-04-18T16:18:32.501Z,924.03
2019-04-18T16:20:04.390Z,924.07
2019-04-18T16:21:36.104Z,924.03
2019-04-18T16:23:07.922Z,923.99
2019-04-18T16:24:39.764Z,923.93
2019-04-18T16:26:11.877Z,923.90
2019-04-18T16:27:43.501Z,923.97
2019-04-18T16:29:15.225Z,923.86
2019-04-18T16:30:47.081Z,923.83
2019-04-18T16:32:18.943Z,923.84
2019-04-18T16:33:50.803Z,923.78
2019-04-18T16:35:22.532Z,923.73
2019-04-18T16:36:54.403Z,923.73
2019-04-18T16:38:26.186Z,923.74
2019-04-18T16:39:58.000Z,923.72
2019-04-18T16:41:29.825Z,923.70
2019-04-18T16:43:01.657Z,923.67
2019-04-18T16:44:33.478Z,923.71
2019-04-18T16:46:05.429Z,923.68
2019-04-18T16:47:37.211Z,923.66
2019-04-18T16:49:08.952Z,923.70
2019-04-18T16:50:40.777Z,923.69
2019-04-18T16:52:12.703Z,923.65
2019-04-18T16:53:44.493Z,923.63
2019-04-18T16:55:16.262Z,923.53
2019-04-18T16:56:48.081Z,923.52
2019-04-18T16:58:19.903Z,923.51
2019-04-18T16:59:51.768Z,923.54
2019-04-18T17:01:23.583Z,923.57
2019-04-18T17:02:57.655Z,923.52
2019-04-18T17:04:27.206Z,923.46
2019-04-18T17:05:59.085Z,923.37
2019-04-18T17:07:30.883Z,923.36
2019-04-18T17:09:02.681Z,923.41
2019-04-18T17:10:34.659Z,923.36
2019-04-18T17:12:06.395Z,923.30
2019-04-18T17:13:38.157Z,923.32
2019-04-18T17:15:09.982Z,923.33
2019-04-18T17:16:41.810Z,923.32
2019-04-18T17:18:13.632Z,923.27
2019-04-18T17:19:45.849Z,923.30
2019-04-18T17:21:17.303Z,923.28
2019-04-18T17:22:49.108Z,923.31
2019-04-18T17:24:20.934Z,923.32
2019-04-18T17:25:52.849Z,923.27
2019-04-18T17:27:24.605Z,923.22
2019-04-18T17:28:57.098Z,923.23
2019-04-18T17:30:28.234Z,923.23
2019-04-18T17:32:00.059Z,923.24
2019-04-18T17:33:31.884Z,923.30
2019-04-18T17:35:18.822Z,923.28
2019-04-18T17:36:45.045Z,923.22
2019-04-18T17:38:32.657Z,923.24
2019-04-18T17:39:57.129Z,923.26
2019-04-18T17:41:16.957Z,923.25
2019-04-18T17:42:42.992Z,923.23
2019-04-18T17:44:15.643Z,923.28
2019-04-18T17:45:46.482Z,923.24
2019-04-18T17:47:18.983Z,923.24
2019-04-18T17:48:50.542Z,923.23
2019-04-18T17:50:22.091Z,923.23
2019-04-18T17:52:00.460Z,923.16
2019-04-18T17:53:39.130Z,923.18
2019-04-18T17:55:12.070Z,923.16
2019-04-18T17:56:34.874Z,923.18
2019-04-18T17:58:01.320Z,923.13
2019-04-18T17:59:33.330Z,923.16
2019-04-18T18:01:05.167Z,923.13
2019-04-18T18:02:37.005Z,923.12
2019-04-18T18:04:26.099Z,923.09
2019-04-18T18:05:48.946Z,923.11
2019-04-18T18:07:14.926Z,923.11
2019-04-18T18:08:49.875Z,923.13
2019-04-18T18:10:19.193Z,923.15
2019-04-18T18:11:53.534Z,923.15
2019-04-18T18:13:23.578Z,923.16
2019-04-18T18:14:56.280Z,923.13
2019-04-18T18:16:29.695Z,923.16
2019-04-18T18:17:58.706Z,923.17
2019-04-18T18:19:29.706Z,923.19
2019-04-18T18:21:03.530Z,923.15
2019-04-18T18:22:35.669Z,923.14
2019-04-18T18:24:07.631Z,923.18
2019-04-18T18:25:34.494Z,923.14
2019-04-18T18:27:07.058Z,923.15
2019-04-18T18:28:37.950Z,923.14
2019-04-18T18:30:10.519Z,923.14
2019-04-18T18:31:46.877Z,923.14
2019-04-18T18:33:19.854Z,923.17
2019-04-18T18:34:56.041Z,923.19
2019-04-18T18:36:23.793Z,923.18
2019-04-18T18:38:00.544Z,923.16
2019-04-18T18:39:27.352Z,923.20
2019-04-18T18:40:58.122Z,923.16
2019-04-18T18:42:26.558Z,923.15
2019-04-18T18:44:01.267Z,923.22
2019-04-18T18:45:32.359Z,923.16
2019-04-18T18:46:59.802Z,923.17
2019-04-18T18:48:39.709Z,923.19
2019-04-18T18:50:04.557Z,923.22
2019-04-18T18:51:34.913Z,923.23
2019-04-18T18:54:41.713Z,923.25
2019-04-18T18:56:14.339Z,923.24
2019-04-18T18:57:46.821Z,923.24
2019-04-18T18:59:17.943Z,923.23
2019-04-18T19:00:47.461Z,923.27
2019-04-18T19:02:20.067Z,923.27
2019-04-18T19:03:50.586Z,923.27
2019-04-18T19:05:40.085Z,923.30
2019-04-18T19:06:55.424Z,923.33
2019-04-18T19:10:21.973Z,923.35
2019-04-18T19:13:30.458Z,923.32
2019-04-18T19:14:39.482Z,923.34
2019-04-18T19:16:20.370Z,923.36
2019-04-18T19:17:36.323Z,923.34
2019-04-18T19:19:09.020Z,923.35
2019-04-18T19:20:40.087Z,923.36
2019-04-18T19:22:11.767Z,923.39
2019-04-18T19:23:43.196Z,923.42
2019-04-18T19:25:15.020Z,923.36
2019-04-18T19:26:50.498Z,923.40
2019-04-18T19:28:27.778Z,923.39
2019-04-18T19:31:22.927Z,923.42
2019-04-18T19:32:59.541Z,923.42
2019-04-18T19:34:27.888Z,923.41
2019-04-18T19:36:23.403Z,923.41